Riverside Park, Ohio
Current Conditions -  °F | °C
As of 3:53 AM on Saturday 25 Oct 2014 (Local Time) from KPHD Reporting Station
Clear Clear  
Wind Chill: 40°   Ceiling: Unl
Heat Index: 40°   Visibility: 8mi
Dew Point: 38°   Wind: 3mph
Humidity: 93%   Direction: 120°ESE
Pressure: 29.99"   Gusts: NA
Location:  40.3767°N, 81.2875°W
Report Text: KPHD 250753Z AUTO 12003KT 8SM CLR 04/03 A2999 RMK AO2 SLP157 T00440033
Loading
Personal Weather Stations






























Interactive Weather Map
Tropical Storm Tracking
New forecast layout! Learn more

10-Day Weather Forecast

Advertisements
Track Severe Weather on mobile